Flight Track Log - Related Links

Times and Time Zones

All times are in EDT time to prevent confusion due to time zone crossing. See the SWA3675 flight status page for this flight to view local times or setup timezone preferences in your user account.

Time Position Orientation Groundspeed Altitude Reporting Facility
EDT Latitude Longitude Course Direction KTS MPH feet Rate Location/Type
Mon 08:10:21 PM 39.1167 -76.6167 142° Southeast 197 227 3,600  Level Potomac TRACON
Mon 08:11:21 PM 39.0500 -76.5667 150° Southeast 251 289 6,300 3,391 Climbing Potomac TRACON
Mon 08:12:16 PM 39.0000 -76.5167 142° Southeast 281 323 10,100 2,299 Climbing Potomac TRACON
Mon 08:14:42 PM 38.8056 -76.5186 180° South 284 327 14,000 1,136 Climbing Washington Center
Mon 08:15:42 PM 38.7278 -76.5842 213° Southwest 303 349 14,000  Level Washington Center
Mon 08:16:41 PM 38.6481 -76.6522 214° Southwest 328 377 14,000  Level Washington Center
Mon 08:17:41 PM 38.5564 -76.6483 178° South 324 373 14,000  Level Washington Center
Mon 08:18:42 PM 38.4753 -76.6233 166° South 317 365 14,000  Level Washington Center
Mon 08:19:42 PM 38.3817 -76.5928 166° South 331 381 14,000  Level Washington Center
Mon 08:20:40 PM 38.2800 -76.5492 161° South 337 388 14,000  Level Washington Center
Mon 08:21:41 PM 38.1864 -76.5189 166° South 337 388 14,000  Level Washington Center
Mon 08:22:41 PM 38.0947 -76.4889 166° South 342 394 14,000  Level Washington Center
Mon 08:23:42 PM 38.0011 -76.4586 166° South 342 394 14,000  Level Washington Center
Mon 08:24:42 PM 37.9075 -76.4261 165° South 342 394 14,000  Level Washington Center
Mon 08:25:16 PM 37.8514 -76.4122 169° South 347 399 14,000  Level Washington Center
Mon 08:25:40 PM 37.8158 -76.3961 160° South 342 394 14,000 -786 Level Washington Center
Mon 08:26:40 PM 37.7222 -76.3636 165° South 342 394 12,900 -1,537 Descending Washington Center
Mon 08:27:41 PM 37.6328 -76.3339 165° South 342 394 10,900 -1,438 Descending Washington Center
Mon 08:28:41 PM 37.5475 -76.3200 173° South 331 381 10,000 -446 Descending Washington Center
Mon 08:29:42 PM 37.4703 -76.3061 172° South 309 356 10,000  Level Washington Center
Mon 08:30:41 PM 37.3911 -76.2925 172° South 291 335 10,000 -756 Level Washington Center
Mon 08:31:41 PM 37.3139 -76.2786 172° South 291 335 8,500 -1,438 Descending Washington Center
Mon 08:32:42 PM 37.2369 -76.2650 172° South 291 335 7,100 -1,361 Descending Washington Center
Mon 08:33:40 PM 37.1619 -76.2511 172° South 291 335 5,800 -1,059 Descending Washington Center
Mon 08:34:41 PM 37.0889 -76.2375 172° South 279 321 5,000 -361 Descending Washington Center
Mon 08:35:53 PM 36.9994 -76.2239 173° South 267 307 5,000 -537 Level Washington Center
Mon 08:36:55 PM 36.9367 -76.2597 205° Southwest 258 297 3,800 -1,161 Descending Washington Center

Login

Don't have an account? Register now (free) for customized features, flight alerts, and more!